Time;durP1;ratioP1;P1;durP2;ratioP2;P2;SDS_P1;SDS_P2;PMS_P1;PMS_P2;Temp;Humidity;BMP_temperature;BMP_pressure;BME280_temperature;BME280_humidity;BME280_pressure;Samples;Min_cycle;Max_cycle;Signal;HPM_P1;HPM_P2
2024/01/15 00:01:16;;;;;;;7.47;2.90;;;;;;;;;;5099131;28;20090;-80
2024/01/15 00:03:46;;;;;;;2.55;1.67;;;;;;;;;;5087694;28;20056;-81
2024/01/15 00:06:19;;;;;;;1.55;1.40;;;;;;;;;;5084994;28;20489;-80
2024/01/15 00:08:50;;;;;;;3.15;1.27;;;;;;;;;;5084843;28;20052;-80
2024/01/15 00:11:21;;;;;;;1.65;1.30;;;;;;;;;;5084884;28;20055;-81
2024/01/15 00:13:52;;;;;;;4.13;1.95;;;;;;;;;;5085839;28;20036;-80
2024/01/15 00:16:22;;;;;;;4.50;1.60;;;;;;;;;;5085520;28;20052;-79
2024/01/15 00:18:53;;;;;;;2.47;1.50;;;;;;;;;;5085713;28;20039;-79
2024/01/15 00:21:24;;;;;;;3.83;1.20;;;;;;;;;;5085066;28;20047;-78
2024/01/15 00:23:55;;;;;;;1.30;1.10;;;;;;;;;;5085492;28;20047;-78
2024/01/15 00:26:25;;;;;;;3.80;1.35;;;;;;;;;;5084546;28;20040;-80
2024/01/15 00:28:55;;;;;;;2.50;1.38;;;;;;;;;;5085039;28;20079;-79
2024/01/15 00:31:26;;;;;;;4.38;1.52;;;;;;;;;;5084743;28;20525;-80
2024/01/15 00:34:00;;;;;;;3.25;1.30;;;;;;;;;;5084664;28;20066;-80
2024/01/15 00:36:30;;;;;;;2.47;1.27;;;;;;;;;;5081883;28;20055;-79
2024/01/15 00:39:01;;;;;;;3.50;1.52;;;;;;;;;;5082181;28;20047;-79
2024/01/15 00:41:32;;;;;;;2.40;1.30;;;;;;;;;;5083258;28;20044;-79
2024/01/15 00:44:02;;;;;;;4.65;1.65;;;;;;;;;;5082855;28;20047;-78
2024/01/15 00:46:45;;;;;;;2.65;1.30;;;;;;;;;;5083457;28;20040;-78
2024/01/15 00:49:17;;;;;;;3.42;1.10;;;;;;;;;;5084265;28;20048;-78
2024/01/15 00:51:49;;;;;;;3.70;1.60;;;;;;;;;;5084124;28;20056;-78
2024/01/15 00:54:18;;;;;;;3.80;1.20;;;;;;;;;;5084872;28;20071;-78
2024/01/15 00:56:49;;;;;;;1.45;1.00;;;;;;;;;;5085187;28;20059;-78
2024/01/15 00:59:20;;;;;;;4.75;1.70;;;;;;;;;;5084685;28;20055;-77
2024/01/15 01:01:51;;;;;;;1.27;1.17;;;;;;;;;;5084458;28;20066;-78
2024/01/15 01:04:22;;;;;;;4.13;1.63;;;;;;;;;;5084814;28;20044;-78
2024/01/15 01:06:53;;;;;;;1.90;1.30;;;;;;;;;;5085347;28;20059;-78
2024/01/15 01:09:24;;;;;;;2.03;1.08;;;;;;;;;;5082866;28;20425;-77
2024/01/15 01:11:55;;;;;;;2.53;1.27;;;;;;;;;;5083327;28;20056;-78
2024/01/15 01:14:26;;;;;;;2.47;1.00;;;;;;;;;;5083731;28;20621;-78
2024/01/15 01:16:55;;;;;;;7.20;1.58;;;;;;;;;;5084668;28;20052;-78
2024/01/15 01:19:27;;;;;;;2.10;1.40;;;;;;;;;;5083464;28;20052;-78
2024/01/15 01:21:59;;;;;;;2.53;1.10;;;;;;;;;;5081497;28;20064;-78
2024/01/15 01:24:29;;;;;;;3.20;1.17;;;;;;;;;;5083699;28;20051;-78
2024/01/15 01:26:59;;;;;;;1.05;0.85;;;;;;;;;;5083500;28;20044;-78
2024/01/15 01:29:31;;;;;;;1.77;1.65;;;;;;;;;;5083348;28;20071;-77
2024/01/15 01:32:03;;;;;;;6.20;1.10;;;;;;;;;;5083286;28;20044;-78
2024/01/15 01:34:41;;;;;;;2.40;1.20;;;;;;;;;;5082936;28;20044;-78
2024/01/15 01:37:13;;;;;;;1.60;1.02;;;;;;;;;;5083401;28;20048;-77
2024/01/15 01:39:45;;;;;;;4.55;1.25;;;;;;;;;;5081767;28;20506;-78
2024/01/15 01:42:16;;;;;;;2.30;1.20;;;;;;;;;;5083613;28;20609;-79
2024/01/15 01:44:47;;;;;;;1.00;1.00;;;;;;;;;;5082999;28;20036;-78
2024/01/15 01:47:18;;;;;;;4.68;1.60;;;;;;;;;;5095380;28;20040;-78
2024/01/15 01:49:49;;;;;;;1.50;1.17;;;;;;;;;;5103232;28;20082;-77
2024/01/15 01:52:20;;;;;;;6.45;1.27;;;;;;;;;;5103955;28;20047;-76
2024/01/15 01:54:52;;;;;;;1.85;1.10;;;;;;;;;;5103794;28;20040;-77
2024/01/15 01:57:23;;;;;;;1.45;0.90;;;;;;;;;;5103105;28;20390;-78
2024/01/15 01:59:54;;;;;;;1.70;1.10;;;;;;;;;;5103749;28;20427;-77
2024/01/15 02:02:25;;;;;;;2.42;1.00;;;;;;;;;;5102827;28;20417;-78
2024/01/15 02:04:55;;;;;;;12.23;1.50;;;;;;;;;;5103270;28;20520;-78
2024/01/15 02:07:26;;;;;;;6.25;1.45;;;;;;;;;;5101657;28;20048;-78
2024/01/15 02:09:57;;;;;;;7.40;0.98;;;;;;;;;;5103187;28;20422;-78
2024/01/15 02:12:28;;;;;;;4.40;1.30;;;;;;;;;;5103200;28;20047;-79
2024/01/15 02:14:58;;;;;;;4.05;1.42;;;;;;;;;;5103041;28;20062;-78
2024/01/15 02:17:28;;;;;;;3.75;1.05;;;;;;;;;;5101193;28;20044;-77
2024/01/15 02:19:58;;;;;;;5.47;1.25;;;;;;;;;;5102977;28;20047;-77
2024/01/15 02:22:28;;;;;;;8.50;1.30;;;;;;;;;;5102415;28;20543;-78
2024/01/15 02:24:59;;;;;;;6.43;1.27;;;;;;;;;;5102437;28;20066;-77
2024/01/15 02:27:29;;;;;;;1.50;1.40;;;;;;;;;;5102157;28;20685;-78
2024/01/15 02:29:59;;;;;;;3.95;1.40;;;;;;;;;;5103016;28;20036;-77
2024/01/15 02:32:31;;;;;;;3.40;0.90;;;;;;;;;;5102802;28;20405;-78
2024/01/15 02:35:04;;;;;;;5.28;1.10;;;;;;;;;;5103159;28;20048;-77
2024/01/15 02:37:36;;;;;;;3.33;1.15;;;;;;;;;;5102756;28;20498;-78
2024/01/15 02:40:06;;;;;;;3.20;1.10;;;;;;;;;;5103279;28;20051;-78
2024/01/15 02:42:37;;;;;;;4.25;1.38;;;;;;;;;;5102124;28;20524;-78
2024/01/15 02:45:08;;;;;;;2.78;1.35;;;;;;;;;;5102366;28;20138;-79
2024/01/15 02:47:40;;;;;;;10.90;1.55;;;;;;;;;;5101995;28;20051;-78
2024/01/15 02:50:11;;;;;;;3.53;1.20;;;;;;;;;;5102387;28;20052;-77
2024/01/15 02:52:45;;;;;;;2.83;1.20;;;;;;;;;;5102690;28;20054;-78
2024/01/15 02:55:17;;;;;;;6.68;1.40;;;;;;;;;;5102286;28;20047;-78
2024/01/15 02:57:48;;;;;;;3.28;1.25;;;;;;;;;;5102173;28;20050;-78
2024/01/15 03:00:19;;;;;;;1.48;1.30;;;;;;;;;;5102300;28;20052;-78
2024/01/15 03:02:51;;;;;;;6.05;1.23;;;;;;;;;;5102264;28;20047;-78
2024/01/15 03:05:22;;;;;;;7.57;1.02;;;;;;;;;;5102557;28;20389;-77
2024/01/15 03:07:53;;;;;;;2.20;1.02;;;;;;;;;;5103451;28;20413;-78
2024/01/15 03:10:25;;;;;;;7.65;1.77;;;;;;;;;;5101640;28;20059;-78
2024/01/15 03:12:58;;;;;;;8.55;1.60;;;;;;;;;;5102006;28;20781;-79
2024/01/15 03:15:29;;;;;;;3.60;1.30;;;;;;;;;;5101892;28;20437;-77
2024/01/15 03:18:00;;;;;;;2.15;1.30;;;;;;;;;;5102162;28;20051;-78
2024/01/15 03:20:30;;;;;;;1.33;1.10;;;;;;;;;;5100936;28;20047;-78
2024/01/15 03:23:00;;;;;;;3.35;1.20;;;;;;;;;;5101839;28;20796;-77
2024/01/15 03:25:30;;;;;;;4.88;1.65;;;;;;;;;;5102190;28;20058;-77
2024/01/15 03:28:01;;;;;;;3.20;1.55;;;;;;;;;;5101857;28;20050;-78
2024/01/15 03:30:31;;;;;;;7.07;1.58;;;;;;;;;;5101792;28;20039;-78
2024/01/15 03:33:01;;;;;;;5.85;1.67;;;;;;;;;;5101643;28;20126;-78
2024/01/15 03:35:32;;;;;;;10.13;1.63;;;;;;;;;;5101825;28;20059;-77
2024/01/15 03:38:03;;;;;;;5.97;1.60;;;;;;;;;;5103602;28;20044;-77
2024/01/15 03:40:34;;;;;;;2.92;1.50;;;;;;;;;;5106476;28;20058;-78
2024/01/15 03:43:04;;;;;;;2.03;1.25;;;;;;;;;;5106422;28;20051;-78
2024/01/15 03:45:36;;;;;;;3.15;1.67;;;;;;;;;;5105779;28;20048;-78
2024/01/15 03:48:07;;;;;;;4.35;1.75;;;;;;;;;;5104411;28;20510;-77
2024/01/15 03:50:38;;;;;;;1.33;1.20;;;;;;;;;;5104707;28;20422;-77
2024/01/15 03:53:07;;;;;;;2.38;1.50;;;;;;;;;;5105888;28;20062;-78
2024/01/15 03:55:38;;;;;;;8.43;1.55;;;;;;;;;;5106116;28;20035;-77
2024/01/15 03:58:10;;;;;;;5.35;1.50;;;;;;;;;;5105930;28;20040;-77
2024/01/15 04:00:40;;;;;;;3.75;1.40;;;;;;;;;;5103121;28;20074;-77
2024/01/15 04:03:11;;;;;;;5.78;2.15;;;;;;;;;;5105579;28;20055;-78
2024/01/15 04:05:44;;;;;;;6.43;1.63;;;;;;;;;;5105520;28;20047;-78
2024/01/15 04:08:15;;;;;;;6.03;1.63;;;;;;;;;;5104452;28;20052;-79
2024/01/15 04:10:46;;;;;;;3.00;1.38;;;;;;;;;;5103438;28;20051;-79
2024/01/15 04:13:16;;;;;;;7.25;1.60;;;;;;;;;;5105740;28;20074;-79
2024/01/15 04:15:46;;;;;;;8.98;1.83;;;;;;;;;;5105962;28;20051;-79
2024/01/15 04:18:19;;;;;;;6.53;1.75;;;;;;;;;;5105791;28;20521;-78
2024/01/15 04:20:50;;;;;;;2.92;1.30;;;;;;;;;;5106532;28;20410;-78
2024/01/15 04:23:20;;;;;;;6.70;1.60;;;;;;;;;;5119579;28;20036;-78
2024/01/15 04:25:50;;;;;;;3.25;1.30;;;;;;;;;;5133008;28;20028;-78
2024/01/15 04:28:20;;;;;;;3.28;1.50;;;;;;;;;;5132171;28;20039;-78
2024/01/15 04:30:51;;;;;;;5.13;1.63;;;;;;;;;;5131980;28;20034;-78
2024/01/15 04:33:21;;;;;;;6.53;1.75;;;;;;;;;;5132022;28;20051;-78
2024/01/15 04:35:51;;;;;;;5.10;1.50;;;;;;;;;;5124171;28;20046;-78
2024/01/15 04:38:22;;;;;;;6.07;1.45;;;;;;;;;;5106072;28;20097;-78
2024/01/15 04:40:52;;;;;;;11.20;1.75;;;;;;;;;;5106367;28;20052;-78
2024/01/15 04:43:27;;;;;;;6.07;1.45;;;;;;;;;;5103999;28;20062;-78
2024/01/15 04:45:58;;;;;;;4.43;1.30;;;;;;;;;;5105368;28;20401;-78
2024/01/15 04:48:30;;;;;;;3.13;1.60;;;;;;;;;;5105509;28;20055;-78
2024/01/15 04:51:00;;;;;;;4.45;1.55;;;;;;;;;;5103720;28;20517;-78
2024/01/15 04:53:30;;;;;;;6.38;1.52;;;;;;;;;;5104340;28;20524;-78
2024/01/15 04:56:01;;;;;;;5.82;1.50;;;;;;;;;;5104586;28;20489;-78
2024/01/15 04:58:31;;;;;;;1.63;1.20;;;;;;;;;;5104408;28;20489;-78
2024/01/15 05:01:03;;;;;;;5.32;1.50;;;;;;;;;;5104687;28;20040;-78
2024/01/15 05:03:34;;;;;;;4.50;1.45;;;;;;;;;;5103934;28;20395;-78
2024/01/15 05:06:04;;;;;;;5.22;1.10;;;;;;;;;;5103507;28;20054;-78
2024/01/15 05:08:35;;;;;;;4.65;1.20;;;;;;;;;;5104299;28;20051;-78
2024/01/15 05:11:06;;;;;;;2.65;1.48;;;;;;;;;;5103810;28;20046;-78
2024/01/15 05:13:35;;;;;;;9.27;1.55;;;;;;;;;;5103952;28;20058;-78
2024/01/15 05:16:06;;;;;;;4.05;1.20;;;;;;;;;;5103995;28;20039;-78
2024/01/15 05:18:37;;;;;;;3.05;1.15;;;;;;;;;;5104292;28;20043;-78
2024/01/15 05:21:08;;;;;;;5.13;1.38;;;;;;;;;;5102446;28;20047;-78
2024/01/15 05:23:39;;;;;;;1.67;1.20;;;;;;;;;;5103656;28;20036;-78
2024/01/15 05:26:10;;;;;;;10.18;1.48;;;;;;;;;;5103845;28;20040;-78
2024/01/15 05:28:42;;;;;;;2.50;1.23;;;;;;;;;;5103501;28;20050;-78
2024/01/15 05:31:15;;;;;;;4.43;1.20;;;;;;;;;;5103502;28;20051;-78
2024/01/15 05:33:45;;;;;;;12.25;1.13;;;;;;;;;;5102086;28;20058;-78
2024/01/15 05:36:16;;;;;;;1.80;1.23;;;;;;;;;;5101917;28;20051;-78
2024/01/15 05:38:47;;;;;;;8.77;1.20;;;;;;;;;;5103968;28;20040;-78
2024/01/15 05:41:17;;;;;;;2.05;1.00;;;;;;;;;;5104111;28;20043;-78
2024/01/15 05:43:48;;;;;;;5.50;1.20;;;;;;;;;;5104043;28;20039;-78
2024/01/15 05:46:18;;;;;;;6.57;1.27;;;;;;;;;;5103957;28;20051;-78
2024/01/15 05:48:48;;;;;;;10.13;1.05;;;;;;;;;;5102737;28;20509;-78
2024/01/15 05:51:19;;;;;;;4.95;1.17;;;;;;;;;;5102118;28;20051;-78
2024/01/15 05:53:51;;;;;;;1.55;0.90;;;;;;;;;;5102842;28;20052;-78
2024/01/15 05:56:24;;;;;;;1.48;1.15;;;;;;;;;;5103927;28;20047;-78
2024/01/15 05:58:54;;;;;;;1.17;1.00;;;;;;;;;;5103116;28;20055;-78
2024/01/15 06:01:24;;;;;;;2.38;0.90;;;;;;;;;;5102180;28;20051;-78
2024/01/15 06:03:55;;;;;;;3.42;0.80;;;;;;;;;;5103246;28;20073;-78
2024/01/15 06:06:27;;;;;;;2.65;1.05;;;;;;;;;;5103850;28;20051;-78
2024/01/15 06:09:04;;;;;;;4.35;1.10;;;;;;;;;;5103327;28;20052;-76
2024/01/15 06:11:35;;;;;;;3.00;1.33;;;;;;;;;;5102887;28;20043;-76
2024/01/15 06:14:05;;;;;;;2.92;1.02;;;;;;;;;;5101341;28;20043;-76
2024/01/15 06:16:35;;;;;;;2.60;0.82;;;;;;;;;;5103060;28;20410;-76
2024/01/15 06:19:05;;;;;;;1.55;1.10;;;;;;;;;;5102581;28;20739;-76
2024/01/15 06:21:36;;;;;;;3.25;0.95;;;;;;;;;;5103319;28;20047;-76
2024/01/15 06:24:06;;;;;;;3.67;0.85;;;;;;;;;;5101266;28;20425;-76
2024/01/15 06:26:37;;;;;;;2.40;0.80;;;;;;;;;;5102895;28;20036;-76
2024/01/15 06:29:07;;;;;;;3.75;1.13;;;;;;;;;;5102682;28;20044;-76
2024/01/15 06:31:38;;;;;;;6.50;1.05;;;;;;;;;;5102584;28;20059;-76
2024/01/15 06:34:09;;;;;;;3.97;0.90;;;;;;;;;;5102678;28;20053;-76
2024/01/15 06:36:40;;;;;;;4.28;1.00;;;;;;;;;;5102149;28;20055;-76
2024/01/15 06:39:11;;;;;;;5.60;1.52;;;;;;;;;;5102598;28;20494;-76
2024/01/15 06:41:43;;;;;;;10.75;1.33;;;;;;;;;;5103023;28;20055;-76
2024/01/15 06:44:14;;;;;;;1.08;0.93;;;;;;;;;;5102811;28;20400;-77
2024/01/15 06:46:45;;;;;;;1.27;1.13;;;;;;;;;;5102388;28;20047;-76
2024/01/15 06:49:15;;;;;;;4.78;0.95;;;;;;;;;;5102075;28;20050;-76
2024/01/15 06:51:47;;;;;;;1.48;1.00;;;;;;;;;;5102060;28;20047;-76
2024/01/15 06:54:18;;;;;;;4.65;0.88;;;;;;;;;;5102635;28;20401;-76
2024/01/15 06:56:49;;;;;;;3.45;1.10;;;;;;;;;;5102844;28;20533;-76
2024/01/15 06:59:19;;;;;;;6.82;1.05;;;;;;;;;;5102699;28;20048;-76
2024/01/15 07:01:49;;;;;;;5.38;1.10;;;;;;;;;;5102833;28;20674;-76
2024/01/15 07:04:21;;;;;;;8.48;1.55;;;;;;;;;;5102784;28;20058;-76
2024/01/15 07:06:53;;;;;;;2.22;1.13;;;;;;;;;;5100116;28;20051;-78
2024/01/15 07:09:23;;;;;;;1.88;1.25;;;;;;;;;;5102737;28;20044;-78
2024/01/15 07:11:56;;;;;;;2.92;0.93;;;;;;;;;;5102328;28;20048;-78
2024/01/15 07:14:27;;;;;;;8.95;1.23;;;;;;;;;;5105382;28;20058;-78
2024/01/15 07:16:58;;;;;;;4.40;1.20;;;;;;;;;;5104429;28;20422;-78
2024/01/15 07:19:28;;;;;;;9.38;1.40;;;;;;;;;;5106106;28;20046;-78
2024/01/15 07:21:58;;;;;;;9.57;1.30;;;;;;;;;;5106026;28;20047;-78
2024/01/15 07:24:34;;;;;;;4.97;1.50;;;;;;;;;;5106134;28;20047;-78
2024/01/15 07:27:05;;;;;;;8.32;1.40;;;;;;;;;;5106388;28;20044;-78
2024/01/15 07:29:38;;;;;;;4.00;1.17;;;;;;;;;;5106511;28;20050;-78
2024/01/15 07:32:09;;;;;;;4.80;1.50;;;;;;;;;;5106444;28;20058;-78
2024/01/15 07:34:40;;;;;;;5.03;1.10;;;;;;;;;;5106458;28;20501;-78
2024/01/15 07:37:12;;;;;;;4.05;1.35;;;;;;;;;;5105840;28;20052;-78
2024/01/15 07:39:43;;;;;;;1.63;1.30;;;;;;;;;;5106239;28;20043;-78
2024/01/15 07:42:14;;;;;;;6.95;1.77;;;;;;;;;;5106435;28;20047;-78
2024/01/15 07:44:48;;;;;;;1.58;1.10;;;;;;;;;;5106585;28;20486;-78
2024/01/15 07:47:19;;;;;;;11.20;1.40;;;;;;;;;;5106401;28;20078;-78
2024/01/15 07:49:52;;;;;;;19.20;1.38;;;;;;;;;;5104605;28;20056;-78
2024/01/15 07:52:23;;;;;;;7.05;1.15;;;;;;;;;;5103566;28;20655;-78
2024/01/15 07:54:54;;;;;;;5.45;1.10;;;;;;;;;;5105329;28;20056;-78
2024/01/15 07:57:26;;;;;;;2.03;1.30;;;;;;;;;;5106200;28;20047;-78
2024/01/15 07:59:56;;;;;;;7.90;1.30;;;;;;;;;;5105986;28;20389;-78
2024/01/15 08:02:27;;;;;;;2.90;1.20;;;;;;;;;;5105829;28;20064;-78
2024/01/15 08:04:58;;;;;;;4.25;1.23;;;;;;;;;;5105537;28;20047;-78
2024/01/15 08:07:30;;;;;;;3.90;1.27;;;;;;;;;;5104540;28;20048;-78
2024/01/15 08:10:00;;;;;;;3.60;1.40;;;;;;;;;;5105884;28;20043;-78
2024/01/15 08:12:30;;;;;;;4.32;1.10;;;;;;;;;;5105639;28;20676;-78
2024/01/15 08:15:01;;;;;;;4.97;1.17;;;;;;;;;;5105868;28;20425;-78
2024/01/15 08:17:32;;;;;;;6.47;1.42;;;;;;;;;;5105820;28;20056;-78
2024/01/15 08:20:04;;;;;;;4.68;1.50;;;;;;;;;;5105931;28;20040;-78
2024/01/15 08:22:35;;;;;;;5.00;1.50;;;;;;;;;;5105501;28;20048;-78
2024/01/15 08:25:06;;;;;;;4.55;1.40;;;;;;;;;;5103376;28;20051;-78
2024/01/15 08:27:37;;;;;;;10.13;1.52;;;;;;;;;;5105094;28;20059;-78
2024/01/15 08:30:09;;;;;;;9.40;1.30;;;;;;;;;;5105532;28;20401;-78
2024/01/15 08:32:42;;;;;;;5.20;1.60;;;;;;;;;;5105016;28;20050;-78
2024/01/15 08:35:13;;;;;;;12.27;1.63;;;;;;;;;;5104759;28;20520;-78
2024/01/15 08:37:44;;;;;;;5.65;1.60;;;;;;;;;;5105118;28;20043;-79
2024/01/15 08:40:15;;;;;;;12.18;1.60;;;;;;;;;;5104852;28;20047;-79
2024/01/15 08:42:45;;;;;;;3.55;1.52;;;;;;;;;;5104730;28;20051;-79
2024/01/15 08:45:16;;;;;;;7.18;1.60;;;;;;;;;;5104899;28;20497;-79
2024/01/15 08:47:46;;;;;;;10.45;2.00;;;;;;;;;;5104160;28;20042;-79
2024/01/15 08:50:17;;;;;;;3.35;1.42;;;;;;;;;;5104857;28;20048;-79
2024/01/15 08:52:48;;;;;;;3.15;1.55;;;;;;;;;;5104528;28;20062;-79
2024/01/15 08:55:22;;;;;;;6.38;1.90;;;;;;;;;;5104723;28;20050;-79
2024/01/15 08:57:52;;;;;;;2.78;1.50;;;;;;;;;;5104312;28;20052;-79
2024/01/15 09:00:22;;;;;;;9.00;1.58;;;;;;;;;;5104327;28;20051;-79
2024/01/15 09:02:53;;;;;;;5.47;1.70;;;;;;;;;;5103813;28;20055;-79
2024/01/15 09:05:24;;;;;;;1.45;1.00;;;;;;;;;;5103700;28;20413;-80
2024/01/15 09:07:55;;;;;;;7.20;1.30;;;;;;;;;;5103855;28;20417;-79
2024/01/15 09:10:26;;;;;;;4.03;1.45;;;;;;;;;;5104279;28;20406;-79
2024/01/15 09:12:57;;;;;;;4.25;1.60;;;;;;;;;;5104095;28;20074;-79
2024/01/15 09:15:28;;;;;;;5.82;1.73;;;;;;;;;;5104119;28;20047;-79
2024/01/15 09:17:58;;;;;;;1.60;1.50;;;;;;;;;;5104249;28;20050;-79
2024/01/15 09:20:29;;;;;;;2.88;1.52;;;;;;;;;;5103957;28;20059;-79
2024/01/15 09:22:59;;;;;;;7.63;2.00;;;;;;;;;;5104073;28;20044;-78
2024/01/15 09:25:29;;;;;;;5.90;1.67;;;;;;;;;;5103985;28;20048;-78
2024/01/15 09:27:59;;;;;;;10.35;2.22;;;;;;;;;;5104249;28;20051;-78
2024/01/15 09:30:30;;;;;;;4.65;2.08;;;;;;;;;;5104498;28;20665;-77
2024/01/15 09:33:00;;;;;;;9.23;2.03;;;;;;;;;;5103983;28;20048;-78
2024/01/15 09:35:32;;;;;;;4.13;2.30;;;;;;;;;;5103301;28;20424;-78
2024/01/15 09:38:03;;;;;;;3.65;2.00;;;;;;;;;;5103382;28;20409;-79
2024/01/15 09:40:38;;;;;;;4.63;2.00;;;;;;;;;;5103229;28;20043;-78
2024/01/15 09:43:08;;;;;;;6.88;2.28;;;;;;;;;;5103404;28;20050;-79
2024/01/15 09:45:39;;;;;;;9.25;2.22;;;;;;;;;;5102456;28;20510;-79
2024/01/15 09:48:10;;;;;;;9.85;2.30;;;;;;;;;;5103476;28;20048;-79
2024/01/15 09:50:41;;;;;;;8.00;2.17;;;;;;;;;;5103167;28;20051;-78
2024/01/15 09:53:14;;;;;;;9.20;2.40;;;;;;;;;;5103456;28;20048;-79
2024/01/15 09:55:44;;;;;;;5.35;2.05;;;;;;;;;;5103329;28;20055;-79
2024/01/15 09:58:15;;;;;;;4.57;2.28;;;;;;;;;;5102055;28;20058;-80
2024/01/15 10:00:50;;;;;;;7.07;2.28;;;;;;;;;;5103221;28;20046;-79
2024/01/15 10:03:21;;;;;;;6.43;2.33;;;;;;;;;;5103690;28;20062;-78
2024/01/15 10:05:51;;;;;;;3.72;2.33;;;;;;;;;;5103288;28;20102;-79
2024/01/15 10:08:24;;;;;;;6.53;2.63;;;;;;;;;;5102116;28;20054;-79
2024/01/15 10:10:55;;;;;;;3.13;2.00;;;;;;;;;;5102813;28;20054;-81
2024/01/15 10:13:26;;;;;;;5.38;2.20;;;;;;;;;;5101184;28;20047;-78
2024/01/15 10:15:56;;;;;;;4.13;1.90;;;;;;;;;;5102968;28;20501;-79
2024/01/15 10:18:28;;;;;;;2.03;1.83;;;;;;;;;;5102907;28;20051;-79
2024/01/15 10:21:00;;;;;;;9.57;3.42;;;;;;;;;;5103189;28;20043;-79
2024/01/15 10:23:33;;;;;;;5.43;2.63;;;;;;;;;;5102557;28;20047;-82
2024/01/15 10:26:04;;;;;;;6.95;1.80;;;;;;;;;;5102800;28;20055;-79
2024/01/15 10:28:34;;;;;;;8.25;2.10;;;;;;;;;;5103034;28;20062;-79
2024/01/15 10:31:06;;;;;;;3.67;1.83;;;;;;;;;;5102476;28;20402;-79
2024/01/15 10:33:38;;;;;;;5.65;1.90;;;;;;;;;;5102597;28;20054;-79
2024/01/15 10:36:11;;;;;;;7.00;2.20;;;;;;;;;;5102397;28;20054;-79
2024/01/15 10:38:48;;;;;;;7.55;2.40;;;;;;;;;;5101511;28;20055;-79
2024/01/15 10:41:18;;;;;;;5.80;2.40;;;;;;;;;;5102534;28;20046;-79
2024/01/15 10:43:50;;;;;;;5.85;2.22;;;;;;;;;;5101519;28;20506;-82
2024/01/15 10:46:21;;;;;;;3.53;2.20;;;;;;;;;;5102160;28;20048;-80
2024/01/15 10:48:53;;;;;;;7.63;3.22;;;;;;;;;;5102331;28;20047;-80
2024/01/15 10:51:25;;;;;;;5.88;2.58;;;;;;;;;;5102749;28;20749;-79
2024/01/15 10:53:59;;;;;;;5.00;2.28;;;;;;;;;;5102414;28;20061;-81
2024/01/15 10:56:35;;;;;;;6.10;3.13;;;;;;;;;;5103003;28;20485;-79
2024/01/15 10:59:09;;;;;;;9.80;2.20;;;;;;;;;;5101848;28;20043;-80
2024/01/15 11:01:42;;;;;;;3.75;2.50;;;;;;;;;;5102256;28;20513;-80
2024/01/15 11:04:13;;;;;;;3.47;2.40;;;;;;;;;;5102714;28;20063;-80
2024/01/15 11:06:48;;;;;;;3.80;2.42;;;;;;;;;;5102716;28;20059;-79
2024/01/15 11:09:20;;;;;;;6.95;2.45;;;;;;;;;;5102232;28;20040;-80
2024/01/15 11:12:11;;;;;;;5.90;2.50;;;;;;;;;;5101680;28;20055;-80
2024/01/15 11:14:45;;;;;;;4.70;2.30;;;;;;;;;;5102140;28;20591;-80
2024/01/15 11:17:16;;;;;;;4.07;1.88;;;;;;;;;;5101838;28;20678;-80
2024/01/15 11:19:51;;;;;;;8.82;3.00;;;;;;;;;;5102308;28;20048;-80
2024/01/15 11:22:32;;;;;;;6.80;2.30;;;;;;;;;;5102880;28;20623;-80
2024/01/15 11:25:13;;;;;;;3.13;1.40;;;;;;;;;;5103078;28;20529;-81
2024/01/15 11:37:27;;;;;;;5.82;1.42;;;;;;;;;;5105371;28;20047;-78
2024/01/15 11:40:10;;;;;;;9.88;2.00;;;;;;;;;;5102359;28;20048;-83
2024/01/15 11:42:40;;;;;;;2.72;1.50;;;;;;;;;;5101436;28;20058;-78
2024/01/15 11:45:18;;;;;;;7.35;1.77;;;;;;;;;;5101788;28;20605;-77
2024/01/15 11:48:08;;;;;;;4.38;0.90;;;;;;;;;;5102026;28;20399;-77
2024/01/15 11:50:42;;;;;;;2.22;1.27;;;;;;;;;;5101340;28;20744;-78
2024/01/15 11:53:28;;;;;;;1.50;1.17;;;;;;;;;;5101469;28;20050;-77
2024/01/15 11:56:01;;;;;;;6.57;1.13;;;;;;;;;;5102053;28;20047;-78
2024/01/15 11:58:33;;;;;;;4.47;1.40;;;;;;;;;;5101918;28;20043;-76
2024/01/15 12:01:05;;;;;;;6.55;1.20;;;;;;;;;;5105025;28;20146;-77
2024/01/15 12:03:36;;;;;;;1.17;0.90;;;;;;;;;;5105560;28;20052;-76
2024/01/15 12:06:07;;;;;;;2.55;1.10;;;;;;;;;;5105813;28;20056;-77
2024/01/15 12:08:37;;;;;;;3.08;1.20;;;;;;;;;;5105903;28;20039;-76
2024/01/15 12:11:14;;;;;;;5.00;1.30;;;;;;;;;;5105525;28;20047;-76
2024/01/15 12:13:45;;;;;;;2.28;0.82;;;;;;;;;;5105047;28;20528;-76
2024/01/15 12:16:15;;;;;;;9.45;2.92;;;;;;;;;;5104783;28;20050;-76
2024/01/15 12:18:46;;;;;;;7.55;1.20;;;;;;;;;;5105187;28;20048;-76
2024/01/15 12:21:16;;;;;;;2.05;0.93;;;;;;;;;;5105589;28;20074;-80
2024/01/15 12:23:48;;;;;;;2.50;0.90;;;;;;;;;;5105229;28;20040;-77
2024/01/15 12:26:19;;;;;;;3.80;1.00;;;;;;;;;;5104762;28;20044;-76
2024/01/15 12:28:51;;;;;;;2.05;0.80;;;;;;;;;;5105168;28;20051;-76
2024/01/15 12:31:24;;;;;;;3.28;0.90;;;;;;;;;;5106188;28;20399;-76
2024/01/15 12:33:56;;;;;;;2.88;0.85;;;;;;;;;;5105024;28;20054;-76
2024/01/15 12:36:31;;;;;;;3.25;1.02;;;;;;;;;;5105012;28;20406;-77
2024/01/15 12:39:02;;;;;;;2.70;0.80;;;;;;;;;;5104819;28;20047;-76
2024/01/15 12:41:32;;;;;;;4.32;1.05;;;;;;;;;;5104708;28;20414;-76
2024/01/15 12:44:03;;;;;;;1.50;0.60;;;;;;;;;;5104749;28;20044;-76
2024/01/15 12:46:34;;;;;;;4.60;0.98;;;;;;;;;;5104153;28;20549;-78
2024/01/15 12:49:05;;;;;;;1.35;0.70;;;;;;;;;;5104537;28;20043;-76
2024/01/15 12:51:35;;;;;;;4.65;0.70;;;;;;;;;;5102085;28;20060;-75
2024/01/15 12:54:07;;;;;;;0.70;0.50;;;;;;;;;;5104339;28;20502;-78
2024/01/15 12:56:37;;;;;;;1.88;0.60;;;;;;;;;;5104593;28;21116;-77
2024/01/15 12:59:08;;;;;;;0.65;0.65;;;;;;;;;;5104682;28;20042;-75
2024/01/15 13:01:38;;;;;;;2.08;0.70;;;;;;;;;;5104547;28;20043;-76
2024/01/15 13:04:11;;;;;;;2.90;0.80;;;;;;;;;;5104677;28;20056;-76
2024/01/15 13:06:43;;;;;;;0.98;0.57;;;;;;;;;;5104638;28;20043;-77
2024/01/15 13:09:14;;;;;;;0.60;0.50;;;;;;;;;;5104894;28;20051;-76
2024/01/15 13:11:48;;;;;;;5.35;0.90;;;;;;;;;;5105112;28;20399;-75
2024/01/15 13:14:19;;;;;;;3.70;0.88;;;;;;;;;;5104307;28;20048;-76
2024/01/15 13:16:49;;;;;;;1.23;0.57;;;;;;;;;;5103966;28;20044;-76
2024/01/15 13:19:21;;;;;;;1.15;0.70;;;;;;;;;;5104091;28;20604;-77
2024/01/15 13:21:53;;;;;;;4.75;0.60;;;;;;;;;;5104113;28;20065;-76
2024/01/15 13:24:25;;;;;;;1.92;0.73;;;;;;;;;;5104036;28;20055;-75
2024/01/15 13:26:56;;;;;;;2.83;0.95;;;;;;;;;;5104267;28;20047;-76
2024/01/15 13:29:27;;;;;;;3.97;0.82;;;;;;;;;;5104183;28;20054;-76
2024/01/15 13:31:58;;;;;;;1.63;0.70;;;;;;;;;;5103943;28;20054;-76
2024/01/15 13:34:28;;;;;;;3.88;0.90;;;;;;;;;;5104346;28;20058;-75
2024/01/15 13:37:00;;;;;;;2.53;0.82;;;;;;;;;;5104108;28;20052;-76
2024/01/15 13:39:33;;;;;;;4.38;0.82;;;;;;;;;;5104016;28;20052;-76
2024/01/15 13:42:04;;;;;;;4.93;0.90;;;;;;;;;;5103822;28;20056;-75
2024/01/15 13:44:35;;;;;;;3.70;0.73;;;;;;;;;;5103691;28;20047;-76
2024/01/15 13:47:08;;;;;;;2.42;0.70;;;;;;;;;;5104220;28;20052;-78
2024/01/15 13:49:39;;;;;;;1.55;0.60;;;;;;;;;;5103302;28;20140;-76
2024/01/15 13:52:08;;;;;;;1.30;0.95;;;;;;;;;;5103794;28;20494;-76
2024/01/15 13:54:41;;;;;;;2.08;0.95;;;;;;;;;;5103261;28;20043;-76
2024/01/15 13:57:19;;;;;;;6.68;1.08;;;;;;;;;;5102949;28;20633;-75
2024/01/15 13:59:49;;;;;;;1.23;0.60;;;;;;;;;;5101461;28;20056;-76
2024/01/15 14:02:20;;;;;;;2.63;1.90;;;;;;;;;;5101714;28;20789;-77
2024/01/15 14:04:54;;;;;;;0.85;0.80;;;;;;;;;;5103152;28;20589;-76
2024/01/15 14:07:24;;;;;;;0.68;0.63;;;;;;;;;;5102829;28;20047;-75
2024/01/15 14:09:55;;;;;;;1.55;0.60;;;;;;;;;;5103038;28;20047;-76
2024/01/15 14:12:26;;;;;;;3.13;0.70;;;;;;;;;;5103450;28;20055;-75
2024/01/15 14:15:02;;;;;;;0.95;0.65;;;;;;;;;;5103100;28;20588;-76
2024/01/15 14:17:33;;;;;;;1.75;0.60;;;;;;;;;;5102821;28;20050;-78
2024/01/15 14:20:05;;;;;;;1.95;0.70;;;;;;;;;;5102998;28;20052;-76
2024/01/15 14:22:35;;;;;;;1.98;0.88;;;;;;;;;;5102434;28;20055;-76
2024/01/15 14:25:06;;;;;;;3.97;0.60;;;;;;;;;;5103904;28;20051;-76
2024/01/15 14:27:37;;;;;;;1.02;0.70;;;;;;;;;;5102831;28;20523;-76
2024/01/15 14:30:08;;;;;;;1.58;0.60;;;;;;;;;;5102693;28;20047;-75
2024/01/15 14:32:41;;;;;;;1.45;0.40;;;;;;;;;;5102618;28;20736;-76
2024/01/15 14:35:13;;;;;;;0.50;0.50;;;;;;;;;;5102347;28;20393;-77
2024/01/15 14:37:44;;;;;;;0.85;0.52;;;;;;;;;;5101547;28;20059;-76
2024/01/15 14:40:17;;;;;;;1.38;0.60;;;;;;;;;;5102789;28;20048;-76
2024/01/15 14:42:47;;;;;;;2.40;0.50;;;;;;;;;;5103092;28;20383;-76
2024/01/15 14:45:18;;;;;;;0.82;0.45;;;;;;;;;;5101171;28;20055;-75
2024/01/15 14:47:50;;;;;;;2.47;0.60;;;;;;;;;;5103258;28;20401;-75
2024/01/15 14:50:20;;;;;;;0.20;0.20;;;;;;;;;;5102286;28;20043;-88
2024/01/15 14:52:51;;;;;;;2.28;0.73;;;;;;;;;;5102518;28;20565;-77
2024/01/15 14:55:23;;;;;;;3.10;0.60;;;;;;;;;;5102477;28;20823;-76
2024/01/15 14:57:57;;;;;;;4.38;0.60;;;;;;;;;;5102520;28;20051;-76
2024/01/15 15:00:28;;;;;;;1.02;0.50;;;;;;;;;;5103073;28;20540;-76
2024/01/15 15:03:00;;;;;;;1.25;0.57;;;;;;;;;;5102943;28;20865;-74
2024/01/15 15:05:31;;;;;;;0.73;0.50;;;;;;;;;;5102827;28;20051;-75
2024/01/15 15:08:08;;;;;;;1.20;0.65;;;;;;;;;;5102076;28;20058;-77
2024/01/15 15:10:40;;;;;;;1.30;0.50;;;;;;;;;;5102488;28;20054;-77
2024/01/15 15:13:11;;;;;;;0.50;0.40;;;;;;;;;;5102170;28;20062;-75
2024/01/15 15:15:41;;;;;;;1.02;0.60;;;;;;;;;;5101691;28;20039;-75
2024/01/15 15:18:13;;;;;;;3.70;0.95;;;;;;;;;;5102393;28;20402;-76